Time;durP1;ratioP1;P1;durP2;ratioP2;P2;SDS_P1;SDS_P2;PMS_P1;PMS_P2;Temp;Humidity;BMP_temperature;BMP_pressure;BME280_temperature;BME280_humidity;BME280_pressure;Samples;Min_cycle;Max_cycle;Signal;HPM_P1;HPM_P2
2022/01/02 00:01:45;;;;;;;12.18;6.25;;;11.00;99.90;;;;;;4995752;28;20060;-80
2022/01/02 00:04:15;;;;;;;12.23;5.82;;;11.10;99.90;;;;;;5012988;28;20120;-78
2022/01/02 00:06:50;;;;;;;12.98;5.97;;;11.00;99.90;;;;;;4997007;28;20069;-80
2022/01/02 00:09:33;;;;;;;12.80;6.20;;;10.90;99.90;;;;;;5013224;28;20057;-81
2022/01/02 00:12:10;;;;;;;13.50;5.82;;;10.90;99.90;;;;;;5012956;28;20049;-80
2022/01/02 00:14:37;;;;;;;11.20;5.68;;;10.90;99.90;;;;;;5012928;28;20049;-80
2022/01/02 00:17:05;;;;;;;11.68;5.70;;;10.90;99.90;;;;;;5012704;28;20184;-80
2022/01/02 00:19:33;;;;;;;12.93;6.60;;;11.00;99.90;;;;;;5013123;28;20046;-79
2022/01/02 00:22:03;;;;;;;13.25;5.93;;;10.90;99.90;;;;;;5011884;28;20053;-80
2022/01/02 00:24:30;;;;;;;15.07;5.65;;;10.80;99.90;;;;;;5011817;28;20411;-79
2022/01/02 00:26:57;;;;;;;13.68;6.40;;;11.30;99.90;;;;;;5012582;28;20088;-78
2022/01/02 00:29:24;;;;;;;13.52;6.30;;;11.00;99.90;;;;;;5012702;28;20125;-77
2022/01/02 00:31:50;;;;;;;13.63;6.43;;;10.80;99.90;;;;;;5012800;28;20045;-79
2022/01/02 00:34:18;;;;;;;12.55;6.55;;;10.80;99.90;;;;;;5012942;28;20108;-76
2022/01/02 00:36:43;;;;;;;13.60;7.00;;;10.70;99.90;;;;;;5011684;28;20480;-78
2022/01/02 00:39:09;;;;;;;14.05;6.90;;;10.70;99.90;;;;;;4994986;28;20054;-79
2022/01/02 00:41:44;;;;;;;13.95;6.82;;;11.10;99.90;;;;;;5013069;28;20410;-79
2022/01/02 00:44:38;;;;;;;12.68;6.53;;;10.60;99.90;;;;;;5016595;28;20084;-79
2022/01/02 00:47:15;;;;;;;12.90;6.38;;;10.60;99.90;;;;;;4975422;28;20563;-78
2022/01/02 00:49:48;;;;;;;12.13;6.88;;;10.60;99.90;;;;;;4975413;28;20109;-79
2022/01/02 00:52:17;;;;;;;12.98;6.85;;;10.70;99.90;;;;;;4975294;28;20054;-77
2022/01/02 00:54:45;;;;;;;12.52;6.60;;;10.60;99.90;;;;;;4975117;28;20039;-78
2022/01/02 00:57:15;;;;;;;15.38;7.65;;;10.60;99.90;;;;;;4975125;28;20047;-81
2022/01/02 01:00:01;;;;;;;14.63;6.82;;;10.50;99.90;;;;;;4958325;28;20054;-81
2022/01/02 01:02:37;;;;;;;14.35;6.68;;;10.50;99.90;;;;;;4975165;28;20473;-79
2022/01/02 01:05:07;;;;;;;12.52;6.55;;;10.50;99.90;;;;;;4975185;28;20062;-80
2022/01/02 01:07:33;;;;;;;16.23;7.20;;;10.50;99.90;;;;;;4974712;28;20065;-79
2022/01/02 01:10:02;;;;;;;16.17;7.43;;;10.60;99.90;;;;;;4975530;28;20101;-80
2022/01/02 01:12:29;;;;;;;15.38;7.35;;;10.50;99.90;;;;;;4981747;28;20054;-80
2022/01/02 01:14:55;;;;;;;18.15;7.18;;;10.50;99.90;;;;;;4966207;28;20517;-81
2022/01/02 01:17:21;;;;;;;16.10;6.68;;;10.50;99.90;;;;;;4985421;28;20059;-80
2022/01/02 01:19:46;;;;;;;15.10;7.43;;;10.60;99.90;;;;;;4983718;28;20042;-79
2022/01/02 01:22:12;;;;;;;15.15;7.07;;;10.50;99.90;;;;;;4960082;28;20584;-80
2022/01/02 01:24:38;;;;;;;16.40;6.95;;;11.00;99.90;;;;;;5005571;28;20045;-81
2022/01/02 01:27:07;;;;;;;15.40;7.60;;;10.50;99.90;;;;;;5016042;28;20057;-80
2022/01/02 01:29:34;;;;;;;17.65;7.55;;;10.50;99.90;;;;;;5015998;28;20045;-80
2022/01/02 01:32:02;;;;;;;15.77;7.30;;;10.50;99.90;;;;;;5015942;28;20464;-79
2022/01/02 01:34:28;;;;;;;14.23;7.40;;;10.50;99.90;;;;;;5015721;28;20052;-80
2022/01/02 01:36:54;;;;;;;14.95;6.85;;;10.50;99.90;;;;;;5013967;28;20506;-80
2022/01/02 01:39:20;;;;;;;14.52;7.00;;;10.50;99.90;;;;;;5015979;28;20045;-80
2022/01/02 01:41:48;;;;;;;13.82;6.95;;;10.90;99.90;;;;;;5014379;28;20103;-81
2022/01/02 01:46:41;;;;;;;17.27;7.40;;;10.50;99.90;;;;;;5014440;28;20050;-80
2022/01/02 01:49:19;;;;;;;16.00;7.22;;;10.50;99.90;;;;;;5014590;28;20053;-81
2022/01/02 01:51:46;;;;;;;13.95;6.47;;;10.50;99.90;;;;;;5015293;28;20399;-81
2022/01/02 01:54:12;;;;;;;16.67;7.65;;;10.50;99.90;;;;;;5015672;28;20116;-78
2022/01/02 01:56:39;;;;;;;15.93;7.43;;;10.50;99.90;;;;;;5014220;28;20046;-78
2022/01/02 01:59:05;;;;;;;15.45;7.53;;;10.50;99.90;;;;;;5014218;28;20088;-80
2022/01/02 02:01:32;;;;;;;15.38;7.82;;;10.50;99.90;;;;;;5015381;28;20052;-78
2022/01/02 02:03:58;;;;;;;13.75;7.35;;;10.50;99.90;;;;;;5015220;28;20052;-78
2022/01/02 02:06:24;;;;;;;18.48;7.45;;;10.50;99.90;;;;;;5015197;28;20069;-79
2022/01/02 02:08:52;;;;;;;14.43;6.78;;;10.50;99.90;;;;;;4997721;28;20154;-82
2022/01/02 02:11:20;;;;;;;18.52;7.38;;;10.50;99.90;;;;;;5015194;28;20073;-78
2022/01/02 02:13:46;;;;;;;14.00;7.30;;;10.50;99.90;;;;;;5014459;28;20389;-80
2022/01/02 02:16:12;;;;;;;16.08;7.75;;;10.50;99.90;;;;;;5015074;28;20045;-78
2022/01/02 02:18:38;;;;;;;16.92;7.22;;;10.80;99.90;;;;;;5014882;28;20100;-82
2022/01/02 02:21:04;;;;;;;16.38;7.85;;;10.40;99.90;;;;;;4997394;28;20129;-80
2022/01/02 02:23:29;;;;;;;14.55;7.72;;;10.40;99.90;;;;;;4997514;28;20046;-81
2022/01/02 02:25:55;;;;;;;17.15;7.38;;;11.00;99.90;;;;;;5014645;28;20041;-80
2022/01/02 02:28:26;;;;;;;14.40;7.22;;;10.40;99.90;;;;;;5015022;28;20052;-81
2022/01/02 02:30:53;;;;;;;17.13;7.85;;;10.60;99.90;;;;;;5014889;28;20038;-81
2022/01/02 02:33:19;;;;;;;16.98;7.75;;;10.50;99.90;;;;;;4996978;28;20081;-79
2022/01/02 02:35:46;;;;;;;17.70;7.95;;;10.40;99.90;;;;;;5014769;28;20085;-81
2022/01/02 02:38:14;;;;;;;15.95;7.75;;;10.40;99.90;;;;;;5014715;28;20096;-81
2022/01/02 02:40:40;;;;;;;17.20;7.75;;;10.40;99.90;;;;;;5014493;28;20049;-79
2022/01/02 02:43:29;;;;;;;13.48;7.57;;;11.20;99.90;;;;;;5014605;28;20050;-79
2022/01/02 02:54:06;;;;;;;15.20;7.20;;;10.40;99.90;;;;;;4997242;28;20058;-79
2022/01/02 02:56:54;;;;;;;15.80;7.00;;;10.50;99.90;;;;;;5014346;28;20484;-79
2022/01/02 02:59:20;;;;;;;14.30;7.05;;;10.80;99.90;;;;;;4980659;28;20510;-78
2022/01/02 03:01:45;;;;;;;14.95;7.32;;;10.40;99.90;;;;;;4996663;28;20050;-82
2022/01/02 03:04:11;;;;;;;15.63;7.47;;;10.40;99.90;;;;;;5013619;28;20046;-79
2022/01/02 03:06:37;;;;;;;15.18;7.60;;;10.40;99.90;;;;;;5013688;28;20058;-79
2022/01/02 03:09:08;;;;;;;17.65;8.02;;;10.80;99.90;;;;;;4996360;28;20085;-81
2022/01/02 03:11:39;;;;;;;18.15;7.75;;;10.40;99.90;;;;;;5014163;28;20042;-81
2022/01/02 03:14:06;;;;;;;16.45;8.25;;;10.60;99.90;;;;;;5013941;28;20053;-80
2022/01/02 03:16:32;;;;;;;15.63;7.82;;;11.30;99.90;;;;;;5013938;28;20041;-81
2022/01/02 03:18:58;;;;;;;17.17;8.38;;;10.50;99.90;;;;;;5013902;28;20053;-81
2022/01/02 03:21:24;;;;;;;20.25;7.95;;;10.50;99.90;;;;;;5013938;28;20053;-80
2022/01/02 03:23:50;;;;;;;19.85;7.97;;;10.70;99.90;;;;;;5013689;28;20045;-80
2022/01/02 03:26:16;;;;;;;15.48;8.15;;;10.50;99.90;;;;;;4996300;28;20037;-81
2022/01/02 03:28:42;;;;;;;19.55;8.32;;;10.50;99.90;;;;;;5013701;28;20042;-80
2022/01/02 03:31:07;;;;;;;18.67;8.82;;;10.50;99.90;;;;;;5013731;28;20403;-78
2022/01/02 03:33:34;;;;;;;20.23;9.27;;;10.50;99.90;;;;;;5013937;28;20046;-84
2022/01/02 03:36:00;;;;;;;22.77;9.13;;;10.50;99.90;;;;;;5013530;28;20389;-81
2022/01/02 03:38:27;;;;;;;20.65;9.43;;;10.50;99.90;;;;;;4995707;28;20078;-84
2022/01/02 03:40:52;;;;;;;16.95;8.60;;;10.60;99.90;;;;;;5013774;28;20121;-82
2022/01/02 03:43:18;;;;;;;15.23;8.00;;;10.50;99.90;;;;;;5013456;28;20163;-84
2022/01/02 03:45:45;;;;;;;18.38;8.00;;;10.90;99.90;;;;;;5013420;28;20519;-82
2022/01/02 03:48:10;;;;;;;16.08;7.65;;;10.50;99.90;;;;;;5013533;28;20038;-82
2022/01/02 03:50:36;;;;;;;15.38;7.85;;;10.50;99.90;;;;;;5013240;28;20061;-83
2022/01/02 03:53:02;;;;;;;17.77;7.43;;;10.60;99.90;;;;;;5013199;28;20042;-87
2022/01/02 03:55:28;;;;;;;19.30;9.00;;;10.50;99.90;;;;;;5012946;28;20046;-85
2022/01/02 03:57:54;;;;;;;16.35;8.13;;;10.50;99.90;;;;;;5013288;28;20377;-80
2022/01/02 04:00:19;;;;;;;21.10;7.85;;;10.50;99.90;;;;;;5013343;28;20050;-84
2022/01/02 04:02:45;;;;;;;18.23;8.50;;;10.50;99.90;;;;;;5013157;28;20045;-82
2022/01/02 04:05:13;;;;;;;21.23;8.70;;;10.50;99.90;;;;;;5013072;28;20133;-81
2022/01/02 04:07:40;;;;;;;18.50;8.25;;;10.50;99.90;;;;;;5012835;28;20064;-82
2022/01/02 04:10:10;;;;;;;17.27;8.02;;;10.70;99.90;;;;;;5012731;28;20046;-81
2022/01/02 04:12:37;;;;;;;21.27;7.70;;;10.50;99.90;;;;;;5013330;28;20072;-79
2022/01/02 04:15:05;;;;;;;18.95;7.97;;;10.90;99.90;;;;;;5012688;28;20042;-78
2022/01/02 04:17:34;;;;;;;15.68;6.93;;;10.60;99.90;;;;;;5012612;28;20053;-80
2022/01/02 04:20:01;;;;;;;18.33;7.97;;;11.00;99.90;;;;;;5012977;28;20046;-79
2022/01/02 04:22:26;;;;;;;16.92;7.30;;;10.60;99.90;;;;;;5012914;28;20038;-79
2022/01/02 04:24:52;;;;;;;21.27;7.80;;;10.70;99.90;;;;;;5012692;28;20446;-79
2022/01/02 04:27:20;;;;;;;17.65;7.43;;;10.50;99.90;;;;;;5013042;28;20183;-80
2022/01/02 04:29:46;;;;;;;17.65;7.93;;;10.60;99.90;;;;;;5013015;28;20096;-80
2022/01/02 04:32:12;;;;;;;19.00;7.20;;;10.60;99.90;;;;;;5012998;28;20491;-81
2022/01/02 04:34:37;;;;;;;19.05;7.60;;;10.60;99.90;;;;;;5013126;28;20046;-79
2022/01/02 04:37:04;;;;;;;16.55;7.72;;;11.30;99.90;;;;;;5012721;28;20072;-79
2022/01/02 04:39:34;;;;;;;17.58;7.15;;;10.70;99.90;;;;;;5012348;28;20041;-78
2022/01/02 04:42:00;;;;;;;17.50;6.75;;;10.70;99.90;;;;;;5013002;28;20133;-85
2022/01/02 04:44:27;;;;;;;18.83;6.75;;;10.70;99.90;;;;;;4995739;28;20046;-83
2022/01/02 04:46:52;;;;;;;19.70;7.90;;;10.90;99.90;;;;;;4995307;28;20561;-84
2022/01/02 04:49:18;;;;;;;17.92;7.97;;;10.60;99.90;;;;;;5012955;28;20092;-86
2022/01/02 04:51:44;;;;;;;18.90;7.45;;;11.40;99.90;;;;;;5012899;28;20117;-87
2022/01/02 04:54:10;;;;;;;17.35;7.40;;;10.60;99.90;;;;;;5012640;28;20133;-85
2022/01/02 04:56:36;;;;;;;17.45;7.53;;;10.60;99.90;;;;;;5012719;28;20077;-82
2022/01/02 04:59:02;;;;;;;18.08;7.22;;;10.60;99.90;;;;;;5013085;28;20125;-85
2022/01/02 05:01:28;;;;;;;18.63;7.57;;;10.70;99.90;;;;;;5013152;28;20121;-83
2022/01/02 05:03:54;;;;;;;17.25;7.18;;;10.70;99.90;;;;;;5028198;28;20037;-79
2022/01/02 05:06:19;;;;;;;14.27;7.32;;;10.60;99.90;;;;;;5037462;28;20030;-79
2022/01/02 05:08:45;;;;;;;17.73;6.75;;;10.60;99.90;;;;;;5021292;28;20473;-80
2022/01/02 05:11:13;;;;;;;17.98;7.43;;;10.90;99.90;;;;;;5013601;28;20050;-80
2022/01/02 05:13:40;;;;;;;20.23;7.65;;;10.60;99.90;;;;;;4996167;28;20041;-78
2022/01/02 05:16:06;;;;;;;17.65;6.97;;;10.60;99.90;;;;;;5012693;28;20042;-80
2022/01/02 05:18:32;;;;;;;18.98;7.13;;;10.60;99.90;;;;;;5012563;28;20042;-79
2022/01/02 05:20:57;;;;;;;15.77;6.90;;;10.60;99.90;;;;;;4978710;28;20046;-80
2022/01/02 05:23:23;;;;;;;15.82;6.90;;;10.60;99.90;;;;;;4978542;28;20038;-80
2022/01/02 05:25:49;;;;;;;19.63;7.50;;;11.20;99.90;;;;;;5012234;28;20108;-79
2022/01/02 05:28:14;;;;;;;14.85;7.10;;;11.10;99.90;;;;;;5014955;28;20388;-80
2022/01/02 05:30:41;;;;;;;15.32;6.13;;;10.50;99.90;;;;;;4998352;28;20045;-78
2022/01/02 05:33:08;;;;;;;20.58;7.25;;;10.90;99.90;;;;;;5015841;28;20085;-78
2022/01/02 05:35:34;;;;;;;18.10;6.85;;;10.60;99.90;;;;;;5015752;28;20045;-79
2022/01/02 05:38:01;;;;;;;15.50;6.70;;;10.60;99.90;;;;;;4982237;28;20061;-80
2022/01/02 05:40:31;;;;;;;14.52;6.30;;;10.60;99.90;;;;;;5015644;28;20107;-79
2022/01/02 05:43:01;;;;;;;19.50;6.57;;;10.70;99.90;;;;;;4998424;28;20563;-81
2022/01/02 05:45:27;;;;;;;15.02;5.88;;;10.70;99.90;;;;;;5015515;28;20599;-80
2022/01/02 05:47:53;;;;;;;14.68;5.90;;;10.60;99.90;;;;;;5015948;28;20423;-80
2022/01/02 05:50:19;;;;;;;19.48;6.47;;;10.70;99.90;;;;;;4998035;28;20046;-78
2022/01/02 05:52:45;;;;;;;14.05;6.20;;;11.00;99.90;;;;;;5015364;28;20084;-77
2022/01/02 05:55:11;;;;;;;13.98;5.50;;;10.70;99.90;;;;;;5015366;28;20046;-78
2022/01/02 05:57:37;;;;;;;15.27;6.78;;;10.80;99.90;;;;;;5015509;28;20093;-80
2022/01/02 06:00:07;;;;;;;17.67;6.40;;;11.00;99.90;;;;;;5015240;28;20555;-78
2022/01/02 06:02:33;;;;;;;16.33;6.68;;;10.70;99.90;;;;;;5015254;28;20408;-78
2022/01/02 06:04:59;;;;;;;18.23;6.93;;;10.70;99.90;;;;;;5015331;28;20038;-79
2022/01/02 06:07:24;;;;;;;14.93;6.72;;;10.70;99.90;;;;;;5003282;28;20120;-78
2022/01/02 06:09:50;;;;;;;18.45;6.97;;;10.70;99.90;;;;;;5014950;28;20054;-78
2022/01/02 06:12:16;;;;;;;17.63;6.75;;;10.70;99.90;;;;;;5015342;28;20033;-79
2022/01/02 06:14:43;;;;;;;14.82;6.53;;;10.70;99.90;;;;;;5015279;28;20049;-80
2022/01/02 06:17:08;;;;;;;17.80;5.93;;;10.70;99.90;;;;;;5016089;28;20046;-78
2022/01/02 06:19:34;;;;;;;22.27;7.05;;;10.70;99.90;;;;;;5015057;28;20037;-79
2022/01/02 06:22:01;;;;;;;15.23;5.22;;;10.80;99.90;;;;;;5015070;28;20100;-79
2022/01/02 06:24:27;;;;;;;20.05;6.97;;;10.70;99.90;;;;;;5014740;28;20048;-79
2022/01/02 06:26:52;;;;;;;19.05;6.00;;;11.10;99.90;;;;;;5013581;28;20476;-79
2022/01/02 06:29:18;;;;;;;19.55;6.18;;;10.70;99.90;;;;;;5013667;28;20038;-80
2022/01/02 06:31:44;;;;;;;16.67;5.95;;;10.80;99.90;;;;;;5014669;28;20050;-79
2022/01/02 06:34:09;;;;;;;19.25;5.70;;;10.80;99.90;;;;;;5014631;28;20554;-78
2022/01/02 06:36:35;;;;;;;17.58;5.50;;;10.80;99.90;;;;;;5014561;28;20077;-78
2022/01/02 06:39:01;;;;;;;14.18;5.78;;;10.90;99.90;;;;;;5013566;28;20046;-78
2022/01/02 06:41:26;;;;;;;19.50;5.68;;;10.90;99.90;;;;;;5014519;28;20077;-80
2022/01/02 06:43:52;;;;;;;16.90;5.78;;;11.20;99.90;;;;;;5013674;28;20391;-78
2022/01/02 06:46:19;;;;;;;15.52;4.82;;;11.00;99.90;;;;;;5014299;28;20038;-79
2022/01/02 06:48:45;;;;;;;14.85;5.13;;;11.00;99.90;;;;;;5014392;28;20496;-79
2022/01/02 06:51:11;;;;;;;14.27;5.25;;;11.10;99.90;;;;;;5014429;28;20092;-79
2022/01/02 06:53:37;;;;;;;14.95;5.65;;;11.10;99.90;;;;;;5014497;28;20045;-79
2022/01/02 06:56:03;;;;;;;16.70;5.15;;;11.10;99.90;;;;;;5014258;28;20038;-80
2022/01/02 06:58:29;;;;;;;14.73;4.65;;;11.10;99.90;;;;;;5014242;28;20556;-79
2022/01/02 07:00:56;;;;;;;16.15;4.45;;;11.20;99.90;;;;;;5014558;28;20185;-80
2022/01/02 07:03:22;;;;;;;15.25;4.13;;;11.20;99.90;;;;;;5014290;28;20053;-80
2022/01/02 07:05:48;;;;;;;10.70;3.75;;;11.20;99.90;;;;;;5014318;28;20348;-79
2022/01/02 07:08:14;;;;;;;12.18;4.43;;;11.30;99.90;;;;;;5013895;28;20064;-80
2022/01/02 07:10:40;;;;;;;11.05;3.95;;;11.20;99.90;;;;;;5013909;28;20408;-79
2022/01/02 07:13:05;;;;;;;12.63;4.20;;;11.20;99.90;;;;;;4996346;28;20089;-79
2022/01/02 07:15:31;;;;;;;14.02;3.80;;;11.30;99.90;;;;;;5013884;28;20038;-79
2022/01/02 07:17:57;;;;;;;11.90;3.70;;;11.30;99.90;;;;;;4996370;28;20092;-80
2022/01/02 07:20:23;;;;;;;13.02;4.20;;;11.70;99.90;;;;;;5014007;28;20377;-81
2022/01/02 07:22:48;;;;;;;10.82;3.22;;;11.30;99.90;;;;;;5013806;28;20053;-78
2022/01/02 07:25:14;;;;;;;12.73;3.75;;;11.30;99.90;;;;;;4995997;28;20116;-78
2022/01/02 07:27:40;;;;;;;11.40;3.83;;;11.30;99.90;;;;;;5013396;28;20053;-80
2022/01/02 07:30:07;;;;;;;11.35;4.13;;;11.30;99.90;;;;;;5013660;28;20132;-80
2022/01/02 07:32:33;;;;;;;13.05;4.13;;;11.30;99.90;;;;;;5013799;28;20089;-80
2022/01/02 07:34:59;;;;;;;10.48;3.03;;;11.30;99.90;;;;;;5013621;28;20058;-80
2022/01/02 07:37:25;;;;;;;7.65;2.80;;;11.30;99.90;;;;;;5013773;28;20053;-80
2022/01/02 07:39:50;;;;;;;6.68;2.13;;;11.20;99.90;;;;;;4996041;28;20046;-79
2022/01/02 07:42:16;;;;;;;9.90;2.85;;;11.20;99.90;;;;;;5013243;28;20046;-77
2022/01/02 07:44:42;;;;;;;8.02;3.00;;;11.20;99.90;;;;;;4995507;28;20408;-79
2022/01/02 07:47:08;;;;;;;6.60;2.22;;;11.20;99.90;;;;;;5013647;28;20082;-81
2022/01/02 07:49:34;;;;;;;8.77;2.22;;;11.20;99.90;;;;;;5013550;28;20068;-81
2022/01/02 07:52:00;;;;;;;7.78;2.63;;;11.20;99.90;;;;;;5014972;28;20100;-80
2022/01/02 07:54:25;;;;;;;10.45;2.80;;;11.10;99.90;;;;;;5014672;28;20132;-85
2022/01/02 07:56:51;;;;;;;8.40;2.83;;;11.10;99.90;;;;;;5014008;28;20459;-83
2022/01/02 07:59:17;;;;;;;7.60;2.97;;;11.40;99.90;;;;;;4996680;28;20896;-80
2022/01/02 08:01:43;;;;;;;9.25;2.70;;;11.10;99.90;;;;;;4996548;28;20081;-85
2022/01/02 08:04:08;;;;;;;10.40;3.30;;;11.40;99.90;;;;;;5013891;28;20049;-82
2022/01/02 08:06:34;;;;;;;9.27;3.53;;;11.10;99.90;;;;;;5013190;28;20488;-81
2022/01/02 08:09:01;;;;;;;7.15;2.38;;;11.00;99.90;;;;;;4995322;28;20046;-85
2022/01/02 08:11:26;;;;;;;7.95;2.55;;;11.10;99.90;;;;;;5013300;28;20050;-81
2022/01/02 08:13:52;;;;;;;6.95;2.65;;;11.20;99.90;;;;;;5014602;28;20038;-79
2022/01/02 08:16:18;;;;;;;9.88;3.60;;;11.00;99.90;;;;;;4995934;28;20041;-80
2022/01/02 08:18:43;;;;;;;7.82;2.80;;;11.00;99.90;;;;;;4995696;28;20399;-79
2022/01/02 08:21:09;;;;;;;8.88;3.60;;;11.20;99.90;;;;;;5013405;28;20056;-80
2022/01/02 08:23:35;;;;;;;7.80;3.40;;;11.10;99.90;;;;;;5012717;28;20069;-79
2022/01/02 08:26:02;;;;;;;10.05;3.03;;;11.10;99.90;;;;;;5012910;28;20050;-78
2022/01/02 08:28:28;;;;;;;8.68;2.92;;;11.00;99.90;;;;;;5012815;28;20053;-80
2022/01/02 08:30:53;;;;;;;10.55;4.43;;;11.00;99.90;;;;;;5013131;28;20042;-80
2022/01/02 08:33:19;;;;;;;11.45;4.65;;;11.10;99.90;;;;;;5013140;28;20049;-80
2022/01/02 08:35:45;;;;;;;10.82;4.28;;;10.90;99.90;;;;;;5012830;28;20050;-79
2022/01/02 08:38:12;;;;;;;13.65;4.50;;;10.90;99.90;;;;;;5012578;28;20056;-78
2022/01/02 08:40:39;;;;;;;16.02;4.97;;;11.00;99.90;;;;;;5013023;28;20038;-79
2022/01/02 08:43:07;;;;;;;13.23;5.13;;;11.00;99.90;;;;;;5013249;28;20113;-81
2022/01/02 08:45:34;;;;;;;11.40;4.25;;;11.10;99.90;;;;;;5013655;28;20049;-82
2022/01/02 08:47:59;;;;;;;11.75;4.88;;;11.10;99.90;;;;;;5014234;28;20042;-79
2022/01/02 08:50:25;;;;;;;10.95;4.63;;;11.30;99.90;;;;;;5020020;28;20048;-84
2022/01/02 08:52:51;;;;;;;15.18;3.97;;;11.00;99.90;;;;;;5028034;28;20045;-82
2022/01/02 08:55:16;;;;;;;13.38;4.70;;;11.00;99.90;;;;;;5025179;28;20038;-79
2022/01/02 08:57:42;;;;;;;10.85;4.20;;;11.30;99.90;;;;;;5023256;28;20134;-81
2022/01/02 09:00:09;;;;;;;8.93;3.63;;;11.00;99.90;;;;;;5021657;28;20081;-81
2022/01/02 09:02:35;;;;;;;9.27;3.58;;;11.00;99.90;;;;;;5014429;28;20049;-79
2022/01/02 09:05:01;;;;;;;12.57;4.30;;;11.60;99.90;;;;;;4999312;28;20054;-79
2022/01/02 09:07:26;;;;;;;11.57;3.97;;;11.00;99.90;;;;;;5016792;28;20093;-79
2022/01/02 09:09:52;;;;;;;11.18;4.40;;;11.40;99.90;;;;;;5016960;28;20050;-77
2022/01/02 09:12:18;;;;;;;9.45;3.70;;;11.00;99.90;;;;;;5016652;28;20038;-79
2022/01/02 09:14:44;;;;;;;11.18;4.05;;;11.20;99.90;;;;;;5016532;28;20400;-80
2022/01/02 09:17:10;;;;;;;9.55;4.05;;;11.50;99.90;;;;;;5016104;28;20042;-80
2022/01/02 09:19:36;;;;;;;10.85;4.20;;;10.90;99.90;;;;;;5016200;28;20080;-81
2022/01/02 09:22:02;;;;;;;12.60;4.28;;;11.00;99.90;;;;;;5016193;28;20073;-82
2022/01/02 09:24:28;;;;;;;10.02;3.85;;;10.90;99.90;;;;;;5016605;28;20171;-82
2022/01/02 09:26:54;;;;;;;13.02;4.80;;;11.00;99.90;;;;;;5016266;28;20132;-80
2022/01/02 09:29:20;;;;;;;14.48;4.30;;;11.00;99.90;;;;;;5016077;28;20046;-81
2022/01/02 09:31:45;;;;;;;11.80;4.35;;;11.00;99.90;;;;;;5016294;28;20084;-80
2022/01/02 09:34:11;;;;;;;13.38;4.70;;;11.00;99.90;;;;;;5015769;28;20041;-81
2022/01/02 09:36:37;;;;;;;11.10;4.03;;;11.10;99.90;;;;;;4998450;28;20046;-80
2022/01/02 09:39:04;;;;;;;10.32;3.75;;;11.10;99.90;;;;;;4997873;28;20476;-79
2022/01/02 09:41:31;;;;;;;9.45;3.88;;;11.10;99.90;;;;;;4998812;28;20050;-81
2022/01/02 09:43:56;;;;;;;12.32;4.20;;;11.10;99.90;;;;;;5015693;28;20415;-80
2022/01/02 09:46:25;;;;;;;10.82;3.67;;;11.10;99.90;;;;;;5015905;28;20049;-82
2022/01/02 09:48:52;;;;;;;8.80;3.88;;;11.20;99.90;;;;;;5016048;28;20415;-81
2022/01/02 09:51:20;;;;;;;12.65;3.97;;;11.20;99.90;;;;;;5015859;28;20041;-83
2022/01/02 09:53:47;;;;;;;10.00;3.78;;;11.20;99.90;;;;;;5016076;28;20049;-80
2022/01/02 09:56:14;;;;;;;12.40;4.10;;;11.20;99.90;;;;;;5015695;28;20129;-81
2022/01/02 09:58:42;;;;;;;13.13;3.90;;;11.30;99.90;;;;;;5015448;28;20042;-78
2022/01/02 10:01:23;;;;;;;16.20;3.97;;;11.30;99.90;;;;;;5015131;28;20513;-84
2022/01/02 10:03:51;;;;;;;10.63;4.43;;;11.30;99.90;;;;;;5015197;28;20088;-79
2022/01/02 10:06:18;;;;;;;11.65;4.00;;;11.30;99.90;;;;;;5015279;28;20049;-81
2022/01/02 10:08:44;;;;;;;9.05;3.45;;;11.30;99.90;;;;;;5015164;28;20050;-78
2022/01/02 10:11:21;;;;;;;9.50;3.80;;;11.30;99.90;;;;;;4997495;28;20061;-81
2022/01/02 10:13:50;;;;;;;9.75;3.90;;;11.30;99.90;;;;;;5015260;28;20096;-80
2022/01/02 10:16:34;;;;;;;12.55;4.25;;;11.40;99.90;;;;;;4997835;28;20060;-81
2022/01/02 10:19:18;;;;;;;9.70;3.33;;;11.40;99.90;;;;;;4997477;28;20050;-78
2022/01/02 10:21:51;;;;;;;13.43;3.88;;;11.40;99.90;;;;;;4999814;28;20182;-80
2022/01/02 10:24:21;;;;;;;12.00;4.15;;;11.40;99.90;;;;;;4997407;28;20135;-80
2022/01/02 10:27:18;;;;;;;11.55;5.03;;;11.40;99.90;;;;;;5015228;28;20395;-79
2022/01/02 10:29:57;;;;;;;9.93;4.45;;;11.50;99.90;;;;;;5014662;28;20053;-80
2022/01/02 10:32:26;;;;;;;9.00;4.35;;;11.40;99.90;;;;;;4980802;28;20104;-81
2022/01/02 10:34:53;;;;;;;11.43;4.72;;;11.40;99.90;;;;;;4997315;28;20057;-79
2022/01/02 10:37:26;;;;;;;10.90;4.82;;;11.50;99.90;;;;;;4997063;28;20095;-82
2022/01/02 10:39:52;;;;;;;12.05;4.68;;;11.40;99.90;;;;;;5015477;28;20049;-81
2022/01/02 10:42:20;;;;;;;11.35;4.75;;;11.40;99.90;;;;;;5014681;28;20123;-78
2022/01/02 10:44:46;;;;;;;10.07;4.60;;;12.10;99.90;;;;;;5014628;28;20077;-80
2022/01/02 10:47:24;;;;;;;13.50;5.25;;;12.00;99.90;;;;;;4996780;28;20381;-80
2022/01/02 10:50:04;;;;;;;10.88;4.35;;;11.50;99.90;;;;;;5014737;28;20403;-79
2022/01/02 10:52:36;;;;;;;10.73;4.45;;;11.40;99.90;;;;;;5014843;28;20046;-80
2022/01/02 10:55:13;;;;;;;11.85;4.78;;;11.50;99.90;;;;;;5014587;28;20048;-81
2022/01/02 10:57:42;;;;;;;11.90;4.25;;;11.50;99.90;;;;;;5014565;28;20049;-80
2022/01/02 11:00:11;;;;;;;11.43;4.95;;;11.50;99.90;;;;;;5014534;28;20041;-79
2022/01/02 11:02:38;;;;;;;12.85;4.75;;;11.50;99.90;;;;;;5014486;28;20049;-79
2022/01/02 11:05:10;;;;;;;15.55;5.22;;;11.70;99.90;;;;;;4996769;28;20057;-79
2022/01/02 11:07:39;;;;;;;11.18;4.70;;;11.50;99.90;;;;;;5014194;28;20058;-80
2022/01/02 11:10:09;;;;;;;11.65;4.55;;;12.00;99.90;;;;;;4996297;28;20053;-80
2022/01/02 11:12:36;;;;;;;9.35;4.45;;;11.50;99.90;;;;;;4996692;28;20132;-78
2022/01/02 11:15:02;;;;;;;10.55;4.72;;;11.50;99.90;;;;;;5014051;28;20042;-81
2022/01/02 11:17:28;;;;;;;12.75;5.25;;;11.60;99.90;;;;;;4996368;28;20042;-83
2022/01/02 11:19:54;;;;;;;11.30;4.80;;;11.60;99.90;;;;;;4996345;28;20063;-83
2022/01/02 11:22:28;;;;;;;12.23;4.95;;;11.70;99.90;;;;;;4996667;28;20387;-81
2022/01/02 11:25:37;;;;;;;11.20;5.05;;;11.90;99.90;;;;;;5012808;28;20046;-80
2022/01/02 11:28:08;;;;;;;8.70;4.30;;;11.80;99.90;;;;;;5013081;28;20112;-80
2022/01/02 11:30:36;;;;;;;11.18;4.75;;;11.80;99.90;;;;;;5015730;28;20049;-82
2022/01/02 11:33:13;;;;;;;11.68;5.72;;;11.80;99.90;;;;;;4996364;28;20046;-83
2022/01/02 11:35:45;;;;;;;14.88;5.40;;;11.70;99.90;;;;;;5013581;28;20037;-80
2022/01/02 11:38:11;;;;;;;11.63;5.18;;;11.70;99.90;;;;;;5013765;28;20038;-80
2022/01/02 11:40:52;;;;;;;9.55;4.50;;;11.70;99.90;;;;;;5013448;28;20121;-82
2022/01/02 11:43:36;;;;;;;11.85;4.85;;;11.70;99.90;;;;;;5013711;28;20077;-81
2022/01/02 11:46:50;;;;;;;10.85;4.60;;;11.70;99.90;;;;;;5013168;28;20096;-80
2022/01/02 11:49:39;;;;;;;12.18;4.78;;;11.70;99.90;;;;;;4933881;29;20055;-80
2022/01/02 11:52:21;;;;;;;10.20;4.72;;;11.60;99.90;;;;;;4933893;29;20100;-80
2022/01/02 11:54:49;;;;;;;11.75;5.43;;;11.70;99.90;;;;;;4933909;29;20486;-80
2022/01/02 11:57:14;;;;;;;10.10;4.70;;;11.60;99.90;;;;;;4917993;29;20094;-84
2022/01/02 11:59:40;;;;;;;11.68;5.40;;;11.60;99.90;;;;;;4933675;29;20505;-81
2022/01/02 12:02:12;;;;;;;9.90;5.90;;;11.70;99.90;;;;;;4933863;29;20073;-81
2022/01/02 12:04:59;;;;;;;9.93;4.65;;;11.60;99.90;;;;;;4934092;29;20060;-78
2022/01/02 12:07:34;;;;;;;15.73;4.88;;;11.60;99.90;;;;;;4940499;29;20066;-81
2022/01/02 12:10:17;;;;;;;16.10;5.30;;;11.90;99.90;;;;;;4936982;29;20058;-80
2022/01/02 12:13:10;;;;;;;12.52;5.22;;;11.60;99.90;;;;;;4953627;29;20051;-81
2022/01/02 12:15:38;;;;;;;11.93;5.35;;;11.60;99.90;;;;;;4938712;29;20087;-80
2022/01/02 12:18:28;;;;;;;16.40;5.32;;;11.70;99.90;;;;;;4953520;29;20462;-80
2022/01/02 12:20:57;;;;;;;12.85;5.07;;;11.60;99.90;;;;;;4936326;29;20063;-80
2022/01/02 12:23:35;;;;;;;11.85;5.53;;;12.00;99.90;;;;;;4936295;29;20130;-81
2022/01/02 12:26:08;;;;;;;12.32;4.70;;;11.80;99.90;;;;;;5012583;28;20054;-80
2022/01/02 12:44:15;;;;;;;10.13;3.40;;;11.60;99.90;;;;;;4989236;22;20061;-81
2022/01/02 12:46:56;;;;;;;13.07;3.90;;;11.50;99.90;;;;;;5038832;28;20037;-81
2022/01/02 12:49:25;;;;;;;11.90;4.00;;;12.20;99.90;;;;;;5591907;23;20051;-81
2022/01/02 12:52:13;;;;;;;10.98;3.63;;;11.50;99.90;;;;;;5036348;28;20128;-81
2022/01/02 12:54:44;;;;;;;13.70;4.47;;;11.40;99.90;;;;;;5036038;28;20049;-80
2022/01/02 12:57:13;;;;;;;10.50;3.05;;;12.10;99.90;;;;;;5036057;28;20045;-80
2022/01/02 12:59:41;;;;;;;12.27;2.90;;;12.20;99.90;;;;;;5035931;28;20569;-80
2022/01/02 13:02:07;;;;;;;12.85;3.22;;;11.50;99.90;;;;;;5036078;28;20102;-80
2022/01/02 13:04:39;;;;;;;11.25;3.10;;;11.50;99.90;;;;;;5036051;28;20041;-81
2022/01/02 13:07:12;;;;;;;10.33;2.70;;;11.50;99.90;;;;;;5036067;28;20159;-80
2022/01/02 13:09:46;;;;;;;8.82;2.47;;;11.80;99.90;;;;;;5035739;28;20495;-79
2022/01/02 13:12:16;;;;;;;8.48;1.73;;;11.50;99.90;;;;;;5035751;28;20053;-80